CST,Max TemperatureF,Mean TemperatureF,Min TemperatureF,Max Dew PointF,MeanDew PointF,Min DewpointF,Max Humidity, Mean Humidity, Min Humidity, Max Sea Level PressureIn, Mean Sea Level PressureIn, Min Sea Level PressureIn, Max VisibilityMiles, Mean VisibilityMiles, Min VisibilityMiles, Max Wind SpeedMPH, Mean Wind SpeedMPH, Max Gust SpeedMPH,PrecipitationIn, CloudCover, Events, WindDirDegrees
2014-1-1,3,0,-4,-4,-7,-10,79,74,68,30.45,30.40,30.35,10,10,10,17,13,20,T,6,,25
2014-1-2,2,-9,-21,-4,-11,-23,91,81,71,30.55,30.48,30.41,10,10,10,16,8,18,0.00,2,,332
2014-1-3,26,3,-21,21,5,-24,88,80,72,30.45,29.95,29.59,10,8,2,32,18,43,0.00,4,,177
2014-1-4,32,17,2,29,11,-5,92,81,70,30.25,29.90,29.57,10,8,2,31,20,36,T,5,Snow,314
2014-1-5,2,-7,-17,-5,-15,-25,79,68,56,30.44,30.36,30.27,10,9,2,33,23,41,T,3,,324
2014-1-6,-10,-15,-21,-18,-23,-28,77,70,62,30.43,30.38,30.26,10,9,4,30,18,36,T,2,,295
2014-1-7,10,-1,-12,-2,-9,-17,86,69,52,30.33,30.25,30.12,10,10,10,12,4,15,0.00,2,,252
2014-1-8,6,-1,-9,-3,-8,-12,92,78,63,30.54,30.47,30.34,10,10,10,15,7,18,0.00,0,,325
2014-1-9,19,6,-8,17,8,-11,100,87,73,30.50,30.19,29.98,10,6,2,22,12,27,0.00,7,,159
2014-1-10,31,25,18,31,26,17,100,96,91,29.99,29.68,29.51,5,2,0,21,9,25,0.01,8,Fog-Rain-Snow,197
2014-1-11,30,24,17,30,24,15,100,94,88,29.80,29.65,29.50,10,6,1,28,12,33,0.00,6,,278
2014-1-12,38,29,20,32,28,19,100,85,70,29.72,29.55,29.45,10,10,4,26,13,32,0.00,2,,215
2014-1-13,36,32,27,31,26,20,89,77,64,29.75,29.67,29.56,10,10,10,26,14,32,0.00,3,,266
2014-1-14,34,21,8,32,19,3,96,85,73,30.16,29.82,29.49,10,6,1,44,27,55,0.07,7,Rain-Snow,304
2014-1-15,27,15,2,19,9,-1,95,79,62,30.21,29.96,29.60,10,8,2,26,15,35,T,5,Snow,233
2014-1-16,34,19,3,30,12,-2,92,77,61,29.93,29.67,29.46,10,6,0,41,26,49,T,7,Snow,312
2014-1-17,13,6,-1,6,0,-6,88,81,73,30.09,29.98,29.82,10,10,7,24,15,35,0.00,4,,307
2014-1-18,19,14,8,16,12,6,92,83,74,30.04,29.70,29.48,10,6,1,24,13,27,0.09,6,Snow,127
2014-1-19,44,30,15,33,24,13,92,80,67,29.86,29.68,29.53,10,10,10,31,19,41,0.00,1,,271
2014-1-20,32,16,-1,27,17,-10,92,80,68,30.43,30.02,29.76,10,4,0,31,15,40,0.04,7,Fog-Snow,340
2014-1-21,8,-2,-13,3,-7,-18,87,76,64,30.51,30.33,30.08,10,9,2,22,11,25,T,4,Snow,224
2014-1-22,13,2,-9,9,0,-15,88,81,73,30.54,30.12,29.93,10,4,0,37,22,43,T,7,Fog-Snow,314
2014-1-23,1,-6,-13,-6,-13,-19,87,76,65,30.81,30.67,30.44,10,10,8,24,15,30,0.00,2,,292
2014-1-24,35,18,1,33,19,-6,100,79,57,30.35,29.78,29.56,10,8,2,35,22,42,0.02,4,Rain-Snow,255
2014-1-25,32,19,6,28,8,-6,92,73,53,29.97,29.76,29.51,10,7,1,37,20,47,0.03,3,Snow,298
2014-1-26,28,12,-5,25,9,-11,96,85,74,30.17,29.66,29.37,10,3,0,47,28,57,0.10,7,Fog-Snow,305
2014-1-27,-5,-9,-14,-10,-15,-19,82,73,64,30.54,30.36,30.14,10,6,1,39,18,48,T,5,Snow,308
2014-1-28,5,-5,-15,-5,-11,-19,81,70,59,30.49,30.38,30.24,10,10,10,23,11,26,0.00,0,,272
2014-1-29,32,15,-3,16,5,-9,79,64,49,30.23,29.96,29.64,10,10,10,25,12,29,0.00,0,,206
2014-1-30,31,16,0,28,17,-5,92,73,53,30.11,29.62,29.36,10,4,0,35,19,42,0.05,7,Fog-Rain-Snow,277
2014-1-31,12,5,-2,1,-3,-8,87,78,69,30.24,30.15,30.08,10,10,10,21,7,24,0.00,0,,240